Time;durP1;ratioP1;P1;durP2;ratioP2;P2;SDS_P1;SDS_P2;PMS_P1;PMS_P2;Temp;Humidity;BMP_temperature;BMP_pressure;BME280_temperature;BME280_humidity;BME280_pressure;Samples;Min_cycle;Max_cycle;Signal;HPM_P1;HPM_P2
2021/12/22 00:02:17;;;;;;;12.57;6.72;;;-2.90;99.90;;;;;;4994075;28;20276;-77
2021/12/22 00:04:45;;;;;;;16.00;7.97;;;-2.90;99.90;;;;;;4994285;28;20184;-79
2021/12/22 00:07:11;;;;;;;16.13;7.22;;;-2.70;99.90;;;;;;4994024;28;20413;-79
2021/12/22 00:09:37;;;;;;;16.42;8.30;;;-2.80;99.90;;;;;;4993667;28;20178;-77
2021/12/22 00:12:03;;;;;;;13.80;7.93;;;-2.70;99.90;;;;;;4993993;28;20695;-79
2021/12/22 00:14:29;;;;;;;25.08;8.93;;;-2.60;99.90;;;;;;4994313;28;20728;-79
2021/12/22 00:16:55;;;;;;;16.33;9.00;;;-2.70;99.90;;;;;;4993937;28;20260;-78
2021/12/22 00:19:20;;;;;;;15.10;8.90;;;-2.70;99.90;;;;;;4993579;28;20612;-78
2021/12/22 00:21:46;;;;;;;18.67;9.10;;;-2.60;99.90;;;;;;4993790;28;20440;-78
2021/12/22 00:24:12;;;;;;;21.13;9.67;;;-2.60;99.90;;;;;;4993788;28;20684;-79
2021/12/22 00:26:37;;;;;;;14.30;8.43;;;-2.60;99.90;;;;;;4993857;28;20180;-78
2021/12/22 00:29:04;;;;;;;16.80;8.47;;;-2.70;99.90;;;;;;4993799;28;20212;-79
2021/12/22 00:31:31;;;;;;;16.48;9.82;;;-2.70;99.90;;;;;;4993332;28;20205;-79
2021/12/22 00:33:57;;;;;;;13.73;8.93;;;-2.70;99.90;;;;;;4993651;28;20180;-79
2021/12/22 00:36:25;;;;;;;15.75;8.15;;;-2.70;99.90;;;;;;4993725;28;20244;-78
2021/12/22 00:38:52;;;;;;;13.75;7.90;;;-2.60;99.90;;;;;;4992573;28;20181;-77
2021/12/22 00:41:17;;;;;;;16.50;7.60;;;-2.70;99.90;;;;;;4995003;28;20222;-77
2021/12/22 00:43:43;;;;;;;15.87;8.10;;;-2.70;99.90;;;;;;4996364;28;20670;-80
2021/12/22 00:46:12;;;;;;;13.88;7.97;;;-2.70;99.90;;;;;;4997706;28;20408;-80
2021/12/22 00:48:38;;;;;;;12.05;8.00;;;-2.80;99.90;;;;;;4997704;28;20167;-79
2021/12/22 00:51:03;;;;;;;20.25;6.95;;;-2.70;99.90;;;;;;4997437;28;20193;-78
2021/12/22 00:53:29;;;;;;;15.17;6.33;;;-2.70;99.90;;;;;;4997765;28;20666;-79
2021/12/22 00:55:55;;;;;;;12.70;8.60;;;-2.70;99.90;;;;;;4997652;28;20181;-77
2021/12/22 00:58:21;;;;;;;10.37;7.00;;;-2.70;99.90;;;;;;4997681;28;20211;-77
2021/12/22 01:00:49;;;;;;;18.43;7.53;;;-2.70;99.90;;;;;;4997190;28;20490;-77
2021/12/22 01:03:16;;;;;;;12.00;7.32;;;-2.60;99.90;;;;;;4997393;28;20547;-79
2021/12/22 01:05:42;;;;;;;16.08;7.93;;;-2.60;99.90;;;;;;4997296;28;20180;-78
2021/12/22 01:08:08;;;;;;;16.60;8.10;;;-2.60;99.90;;;;;;4997317;28;20724;-77
2021/12/22 01:10:34;;;;;;;17.90;8.17;;;-2.70;99.90;;;;;;4996898;28;20681;-80
2021/12/22 01:13:02;;;;;;;15.45;8.30;;;-2.60;99.90;;;;;;4997423;28;20242;-78
2021/12/22 01:15:29;;;;;;;13.68;7.88;;;-2.70;99.90;;;;;;4997249;28;20188;-78
2021/12/22 01:18:07;;;;;;;18.60;8.43;;;-2.60;99.90;;;;;;4997026;28;20213;-78
2021/12/22 01:20:50;;;;;;;14.38;8.10;;;-2.60;99.90;;;;;;4995737;28;20196;-79
2021/12/22 01:23:19;;;;;;;10.43;7.75;;;-2.60;99.90;;;;;;4997113;28;20221;-78
2021/12/22 01:25:45;;;;;;;15.10;8.50;;;-2.60;99.90;;;;;;4996935;28;20586;-78
2021/12/22 01:28:11;;;;;;;11.93;7.63;;;-2.70;99.90;;;;;;4996932;28;20536;-78
2021/12/22 01:30:43;;;;;;;17.33;8.23;;;-2.60;99.90;;;;;;4996550;28;20225;-77
2021/12/22 01:33:08;;;;;;;11.95;8.55;;;-2.60;99.90;;;;;;4996811;28;20646;-77
2021/12/22 01:35:35;;;;;;;13.63;7.70;;;-2.70;99.90;;;;;;4996784;28;20203;-78
2021/12/22 01:38:01;;;;;;;13.68;7.80;;;-2.60;99.90;;;;;;4996727;28;20184;-78
2021/12/22 01:40:27;;;;;;;14.55;8.00;;;-2.60;99.90;;;;;;4996626;28;20664;-77
2021/12/22 01:42:58;;;;;;;9.82;6.80;;;-2.50;99.90;;;;;;4995521;28;20220;-77
2021/12/22 01:51:09;;;;;;;10.07;5.60;;;-2.50;99.90;;;;;;4996575;28;20263;-78
2021/12/22 01:53:44;;;;;;;10.25;5.93;;;-2.40;99.90;;;;;;4995861;28;20266;-78
2021/12/22 01:58:46;;;;;;;14.20;7.20;;;-2.60;99.90;;;;;;4996602;28;20176;-79
2021/12/22 02:01:12;;;;;;;15.57;6.32;;;-2.60;99.90;;;;;;4995976;28;20611;-78
2021/12/22 02:03:39;;;;;;;17.02;7.65;;;-2.60;99.90;;;;;;4995164;28;20244;-79
2021/12/22 02:06:05;;;;;;;7.03;6.18;;;-2.60;99.90;;;;;;4996448;28;20173;-77
2021/12/22 02:08:33;;;;;;;12.07;6.97;;;-2.60;99.90;;;;;;4996265;28;20185;-78
2021/12/22 02:10:58;;;;;;;17.65;7.80;;;-2.50;99.90;;;;;;4995714;28;20205;-79
2021/12/22 02:13:30;;;;;;;13.53;7.87;;;-2.50;99.90;;;;;;4996361;28;20201;-77
2021/12/22 02:16:05;;;;;;;15.05;7.10;;;-2.60;99.90;;;;;;4996235;28;20846;-77
2021/12/22 02:18:31;;;;;;;14.27;8.70;;;-2.50;99.90;;;;;;4996211;28;20194;-79
2021/12/22 02:20:57;;;;;;;14.02;8.18;;;-2.60;99.90;;;;;;4995620;28;20198;-75
2021/12/22 02:23:23;;;;;;;16.17;7.87;;;-2.50;99.90;;;;;;4996103;28;20209;-78
2021/12/22 02:25:53;;;;;;;12.90;8.10;;;-2.50;99.90;;;;;;4994706;28;20271;-79
2021/12/22 02:28:27;;;;;;;17.13;9.10;;;-2.50;99.90;;;;;;4995842;28;20181;-78
2021/12/22 02:30:53;;;;;;;15.35;8.70;;;-2.50;99.90;;;;;;4995382;28;20708;-78
2021/12/22 02:33:36;;;;;;;22.88;9.88;;;-2.50;99.90;;;;;;4995718;28;20208;-78
2021/12/22 02:38:36;;;;;;;19.85;8.95;;;-2.50;99.90;;;;;;4995598;28;20524;-79
2021/12/22 02:41:04;;;;;;;16.42;8.07;;;-2.50;99.90;;;;;;4995350;28;20252;-78
2021/12/22 02:43:33;;;;;;;13.25;7.82;;;-2.50;99.90;;;;;;4995456;28;20639;-77
2021/12/22 02:46:00;;;;;;;17.45;8.45;;;-2.50;99.90;;;;;;4994230;28;20179;-79
2021/12/22 02:48:32;;;;;;;14.65;8.98;;;-2.50;99.90;;;;;;4994278;28;20167;-77
2021/12/22 02:51:03;;;;;;;16.90;9.30;;;-2.50;99.90;;;;;;4993839;28;20211;-77
2021/12/22 02:53:39;;;;;;;14.93;7.45;;;-2.50;99.90;;;;;;4995601;28;20589;-79
2021/12/22 03:04:19;;;;;;;14.77;8.48;;;-2.50;99.90;;;;;;4995227;28;20224;-79
2021/12/22 03:06:55;;;;;;;10.60;8.77;;;-2.50;99.90;;;;;;4995346;28;20205;-77
2021/12/22 03:09:33;;;;;;;15.18;8.75;;;-2.50;99.90;;;;;;4994765;28;20289;-78
2021/12/22 03:12:02;;;;;;;18.85;9.52;;;-2.60;99.90;;;;;;4994947;28;20198;-77
2021/12/22 03:14:28;;;;;;;18.35;9.50;;;-2.60;99.90;;;;;;4994993;28;20643;-78
2021/12/22 03:16:55;;;;;;;25.23;10.32;;;-2.60;99.90;;;;;;4995067;28;20183;-79
2021/12/22 03:19:29;;;;;;;17.77;9.27;;;-2.60;99.90;;;;;;4994659;28;20178;-78
2021/12/22 03:22:01;;;;;;;15.82;9.55;;;-2.60;99.90;;;;;;4994863;28;20200;-77
2021/12/22 03:24:28;;;;;;;18.73;10.40;;;-2.60;99.90;;;;;;4994753;28;20247;-79
2021/12/22 03:26:55;;;;;;;19.13;10.30;;;-2.60;99.90;;;;;;4993377;28;20268;-77
2021/12/22 03:29:21;;;;;;;17.35;9.52;;;-2.60;99.90;;;;;;4994509;28;20174;-78
2021/12/22 03:31:48;;;;;;;25.60;11.87;;;-2.60;99.90;;;;;;4993263;28;20212;-79
2021/12/22 03:34:14;;;;;;;16.75;10.20;;;-2.70;99.90;;;;;;4994449;28;20422;-77
2021/12/22 03:36:42;;;;;;;20.23;11.13;;;-2.70;99.90;;;;;;4994553;28;20205;-78
2021/12/22 03:39:08;;;;;;;20.00;10.32;;;-2.70;99.90;;;;;;4993167;28;20599;-78
2021/12/22 03:41:37;;;;;;;16.50;9.98;;;-2.80;99.90;;;;;;4994233;28;20193;-78
2021/12/22 03:44:04;;;;;;;25.80;12.30;;;-2.80;99.90;;;;;;4994599;28;20213;-78
2021/12/22 03:46:30;;;;;;;26.13;11.32;;;-2.70;99.90;;;;;;4994684;28;20180;-78
2021/12/22 03:48:55;;;;;;;18.13;10.53;;;-2.80;99.90;;;;;;4994547;28;20572;-78
2021/12/22 03:51:21;;;;;;;23.65;11.57;;;-2.80;99.90;;;;;;4992768;28;20440;-79
2021/12/22 03:53:47;;;;;;;25.00;12.10;;;-2.90;99.90;;;;;;4994348;28;20178;-78
2021/12/22 03:56:12;;;;;;;25.33;11.57;;;-3.00;99.90;;;;;;4994351;28;20635;-78
2021/12/22 03:58:38;;;;;;;28.63;11.73;;;-2.90;99.90;;;;;;4993047;28;20189;-79
2021/12/22 04:01:05;;;;;;;20.87;11.37;;;-2.90;99.90;;;;;;4993891;28;20598;-79
2021/12/22 04:03:33;;;;;;;19.08;10.95;;;-2.90;99.90;;;;;;4994162;28;20204;-78
2021/12/22 04:05:59;;;;;;;15.13;10.98;;;-2.90;99.90;;;;;;4994331;28;20181;-78
2021/12/22 04:08:25;;;;;;;19.00;10.57;;;-2.90;99.90;;;;;;4993967;28;20221;-77
2021/12/22 04:10:52;;;;;;;23.90;12.20;;;-2.90;99.90;;;;;;4993959;28;20430;-79
2021/12/22 04:13:19;;;;;;;24.25;13.77;;;-3.00;99.90;;;;;;4994079;28;20926;-78
2021/12/22 04:15:45;;;;;;;18.65;12.13;;;-2.90;99.90;;;;;;4993796;28;20540;-78
2021/12/22 04:18:11;;;;;;;19.35;10.90;;;-3.00;99.90;;;;;;4993969;28;20179;-77
2021/12/22 04:20:37;;;;;;;22.08;10.95;;;-3.00;99.90;;;;;;4993610;28;20571;-79
2021/12/22 04:23:03;;;;;;;20.50;11.23;;;-3.00;99.90;;;;;;4993847;28;20207;-78
2021/12/22 04:25:30;;;;;;;24.50;12.00;;;-3.10;99.90;;;;;;4993805;28;20422;-77
2021/12/22 04:28:07;;;;;;;21.65;11.98;;;-3.10;99.90;;;;;;4994001;28;20177;-78
2021/12/22 04:30:35;;;;;;;26.08;11.65;;;-3.20;99.90;;;;;;4993647;28;20192;-77
2021/12/22 04:33:02;;;;;;;21.63;11.95;;;-3.20;99.90;;;;;;4993736;28;20264;-78
2021/12/22 04:35:28;;;;;;;23.45;10.90;;;-3.30;99.90;;;;;;4992365;28;20208;-81
2021/12/22 04:37:53;;;;;;;23.97;11.60;;;-3.30;99.90;;;;;;4993827;28;20707;-78
2021/12/22 04:40:19;;;;;;;22.57;11.63;;;-3.30;99.90;;;;;;4993309;28;20461;-79
2021/12/22 04:42:45;;;;;;;22.10;10.97;;;-3.30;99.90;;;;;;4993685;28;20216;-78
2021/12/22 04:45:12;;;;;;;22.77;12.27;;;-3.30;99.90;;;;;;4993793;28;20194;-78
2021/12/22 04:47:38;;;;;;;20.02;11.65;;;-3.40;99.90;;;;;;4992329;28;20193;-78
2021/12/22 04:50:10;;;;;;;21.60;11.70;;;-3.50;99.90;;;;;;4993285;28;20238;-77
2021/12/22 04:52:44;;;;;;;19.25;10.48;;;-3.50;99.90;;;;;;4993834;28;20449;-79
2021/12/22 04:55:10;;;;;;;20.83;10.90;;;-3.50;99.90;;;;;;4992711;28;20190;-78
2021/12/22 04:57:36;;;;;;;23.40;11.63;;;-3.50;99.90;;;;;;4993636;28;20545;-78
2021/12/22 05:00:05;;;;;;;30.40;11.30;;;-3.60;99.90;;;;;;4993504;28;20179;-78
2021/12/22 05:02:31;;;;;;;17.90;10.35;;;-3.60;99.90;;;;;;4993671;28;20769;-78
2021/12/22 05:04:57;;;;;;;24.63;11.23;;;-3.50;99.90;;;;;;4993590;28;20259;-78
2021/12/22 05:07:22;;;;;;;30.50;11.67;;;-3.50;99.90;;;;;;4993620;28;20225;-77
2021/12/22 05:09:48;;;;;;;31.00;13.43;;;-3.50;99.90;;;;;;4993241;28;20180;-78
2021/12/22 05:12:13;;;;;;;20.93;11.00;;;-3.40;99.90;;;;;;4993487;28;20192;-78
2021/12/22 05:14:40;;;;;;;20.40;11.17;;;-3.50;99.90;;;;;;5008603;28;20230;-78
2021/12/22 05:17:07;;;;;;;18.50;9.98;;;-3.60;99.90;;;;;;4993483;28;20176;-78
2021/12/22 05:19:32;;;;;;;21.40;11.48;;;-3.60;99.90;;;;;;4993007;28;20198;-77
2021/12/22 05:21:58;;;;;;;29.70;12.80;;;-3.50;99.90;;;;;;4992160;28;20235;-78
2021/12/22 05:24:24;;;;;;;25.70;13.40;;;-3.50;99.90;;;;;;4993510;28;20212;-78
2021/12/22 05:26:50;;;;;;;22.63;12.33;;;-3.50;99.90;;;;;;4993461;28;20180;-77
2021/12/22 05:29:16;;;;;;;24.80;11.93;;;-3.50;99.90;;;;;;4996130;28;20782;-78
2021/12/22 05:31:42;;;;;;;27.50;13.27;;;-3.50;99.90;;;;;;4996714;28;20275;-78
2021/12/22 05:34:08;;;;;;;30.83;12.77;;;-3.50;99.90;;;;;;4996755;28;20768;-78
2021/12/22 05:36:34;;;;;;;25.52;13.68;;;-3.50;99.90;;;;;;4996741;28;20561;-78
2021/12/22 05:39:00;;;;;;;28.93;12.60;;;-3.50;99.90;;;;;;4996710;28;20180;-79
2021/12/22 05:41:25;;;;;;;25.97;14.27;;;-3.50;99.90;;;;;;4995063;28;20436;-77
2021/12/22 05:43:51;;;;;;;28.43;14.37;;;-3.60;99.90;;;;;;4996754;28;20203;-78
2021/12/22 05:46:17;;;;;;;29.88;14.43;;;-3.40;99.90;;;;;;4996869;28;20352;-79
2021/12/22 05:48:44;;;;;;;34.40;14.27;;;-3.50;99.90;;;;;;4996773;28;20667;-78
2021/12/22 05:51:10;;;;;;;27.48;14.73;;;-3.50;99.90;;;;;;4996427;28;20280;-77
2021/12/22 05:53:37;;;;;;;25.38;13.70;;;-3.50;99.90;;;;;;4995517;28;20651;-78
2021/12/22 05:56:04;;;;;;;20.77;13.02;;;-3.50;99.90;;;;;;4996454;28;20192;-78
2021/12/22 05:58:29;;;;;;;19.55;11.98;;;-3.50;99.90;;;;;;4996418;28;20183;-80
2021/12/22 06:00:56;;;;;;;26.03;13.70;;;-3.50;99.90;;;;;;4994819;28;20203;-79
2021/12/22 06:03:21;;;;;;;25.33;13.05;;;-3.50;99.90;;;;;;4996475;28;20304;-78
2021/12/22 06:05:47;;;;;;;21.03;12.83;;;-3.50;99.90;;;;;;4995107;28;20607;-80
2021/12/22 06:08:13;;;;;;;26.07;12.17;;;-3.50;99.90;;;;;;4996097;28;20177;-77
2021/12/22 06:10:39;;;;;;;29.77;11.80;;;-3.50;99.90;;;;;;4995982;28;20203;-78
2021/12/22 06:13:06;;;;;;;22.60;12.20;;;-3.50;99.90;;;;;;4996455;28;20407;-77
2021/12/22 06:15:34;;;;;;;20.95;12.20;;;-3.60;99.90;;;;;;4996321;28;20572;-77
2021/12/22 06:18:01;;;;;;;19.92;11.93;;;-3.60;99.90;;;;;;4996172;28;20183;-79
2021/12/22 06:20:27;;;;;;;20.13;10.98;;;-3.50;99.90;;;;;;4995644;28;20251;-78
2021/12/22 06:22:53;;;;;;;19.85;10.93;;;-3.60;99.90;;;;;;4994846;28;20608;-78
2021/12/22 06:25:20;;;;;;;23.20;12.25;;;-3.60;99.90;;;;;;4996022;28;20252;-78
2021/12/22 06:27:46;;;;;;;20.98;12.07;;;-3.50;99.90;;;;;;4995960;28;20176;-77
2021/12/22 06:30:11;;;;;;;18.33;11.47;;;-3.50;99.90;;;;;;4995386;28;20267;-78
2021/12/22 06:32:38;;;;;;;18.80;12.10;;;-3.40;99.90;;;;;;4994920;28;20429;-78
2021/12/22 06:35:04;;;;;;;22.05;13.18;;;-3.40;99.90;;;;;;4994399;28;20184;-79
2021/12/22 06:37:29;;;;;;;19.40;12.13;;;-3.30;99.90;;;;;;4995869;28;20166;-80
2021/12/22 06:39:55;;;;;;;24.60;14.00;;;-3.30;99.90;;;;;;4993794;28;20186;-78
2021/12/22 06:42:22;;;;;;;22.53;11.23;;;-3.30;99.90;;;;;;4995272;28;20224;-78
2021/12/22 06:44:49;;;;;;;23.58;11.38;;;-3.20;99.90;;;;;;4994356;28;20180;-78
2021/12/22 06:47:14;;;;;;;22.80;12.13;;;-3.20;99.90;;;;;;4995677;28;20256;-78
2021/12/22 06:49:40;;;;;;;22.70;12.73;;;-3.20;99.90;;;;;;5010258;28;20278;-77
2021/12/22 06:52:06;;;;;;;23.20;12.20;;;-3.30;99.90;;;;;;4995498;28;20237;-79
2021/12/22 06:54:32;;;;;;;20.88;11.40;;;-3.30;99.90;;;;;;4995327;28;20203;-77
2021/12/22 06:56:57;;;;;;;21.30;12.17;;;-3.20;99.90;;;;;;4995440;28;20179;-77
2021/12/22 06:59:23;;;;;;;22.47;13.60;;;-3.20;99.90;;;;;;4995171;28;20626;-79
2021/12/22 07:01:50;;;;;;;24.20;13.23;;;-3.20;99.90;;;;;;4994255;28;20207;-78
2021/12/22 07:04:16;;;;;;;21.92;13.25;;;-3.20;99.90;;;;;;4995248;28;20204;-77
2021/12/22 07:06:42;;;;;;;26.42;14.88;;;-3.20;99.90;;;;;;4995293;28;20564;-79
2021/12/22 07:09:08;;;;;;;26.70;13.60;;;-3.10;99.90;;;;;;4995070;28;20211;-79
2021/12/22 07:11:35;;;;;;;25.92;13.50;;;-3.00;99.90;;;;;;4994924;28;20200;-79
2021/12/22 07:14:02;;;;;;;22.35;14.82;;;-3.00;99.90;;;;;;4995098;28;20195;-79
2021/12/22 07:16:28;;;;;;;26.52;14.93;;;-3.10;99.90;;;;;;4993889;28;20267;-78
2021/12/22 07:18:54;;;;;;;25.33;13.23;;;-3.00;99.90;;;;;;4994982;28;20604;-78
2021/12/22 07:21:19;;;;;;;23.47;11.90;;;-3.00;99.90;;;;;;4994605;28;20278;-78
2021/12/22 07:23:45;;;;;;;27.30;12.03;;;-3.00;99.90;;;;;;4994814;28;20668;-78
2021/12/22 07:26:13;;;;;;;28.43;12.53;;;-3.10;99.90;;;;;;4994759;28;20181;-80
2021/12/22 07:28:48;;;;;;;22.52;13.57;;;-3.00;99.90;;;;;;4994646;28;20446;-79
2021/12/22 07:31:15;;;;;;;24.77;13.40;;;-3.00;99.90;;;;;;4994419;28;20558;-78
2021/12/22 07:34:01;;;;;;;20.20;13.90;;;-2.90;99.90;;;;;;4993397;28;20239;-78
2021/12/22 07:36:26;;;;;;;21.30;12.40;;;-3.00;99.90;;;;;;4994625;28;20242;-78
2021/12/22 07:38:57;;;;;;;23.23;14.20;;;-2.90;99.90;;;;;;4994359;28;20183;-79
2021/12/22 07:41:23;;;;;;;23.45;12.48;;;-3.00;99.90;;;;;;4994120;28;20227;-78
2021/12/22 07:43:49;;;;;;;21.40;13.13;;;-3.00;99.90;;;;;;4994475;28;20243;-78
2021/12/22 07:46:15;;;;;;;19.20;13.30;;;-3.00;99.90;;;;;;4994470;28;20177;-77
2021/12/22 07:48:41;;;;;;;21.75;13.40;;;-2.90;99.90;;;;;;4994099;28;20172;-79
2021/12/22 07:51:06;;;;;;;18.90;12.40;;;-2.80;99.90;;;;;;4992970;28;20227;-77
2021/12/22 07:53:32;;;;;;;29.27;15.83;;;-2.90;99.90;;;;;;4994529;28;20473;-78
2021/12/22 07:55:58;;;;;;;30.47;15.53;;;-2.90;99.90;;;;;;4994239;28;20191;-78
2021/12/22 07:58:25;;;;;;;33.30;15.83;;;-2.80;99.90;;;;;;4994381;28;20568;-78
2021/12/22 08:00:52;;;;;;;27.00;14.40;;;-2.80;99.90;;;;;;4993907;28;20201;-78
2021/12/22 08:03:18;;;;;;;23.02;14.65;;;-2.80;99.90;;;;;;4994189;28;20542;-78
2021/12/22 08:05:44;;;;;;;28.93;16.50;;;-2.80;99.90;;;;;;4994163;28;20173;-78
2021/12/22 08:08:09;;;;;;;29.37;14.57;;;-2.80;99.90;;;;;;4994099;28;20180;-78
2021/12/22 08:10:35;;;;;;;32.30;16.30;;;-2.80;99.90;;;;;;4993663;28;20427;-78
2021/12/22 08:13:01;;;;;;;29.30;13.93;;;-2.70;99.90;;;;;;4993974;28;20207;-79
2021/12/22 08:15:27;;;;;;;25.80;14.30;;;-2.70;99.90;;;;;;4994279;28;20437;-78
2021/12/22 08:17:54;;;;;;;35.47;15.32;;;-2.60;99.90;;;;;;4994216;28;20548;-78
2021/12/22 08:20:20;;;;;;;25.75;14.48;;;-2.60;99.90;;;;;;4993598;28;20185;-79
2021/12/22 08:22:46;;;;;;;26.85;16.98;;;-2.60;99.90;;;;;;4993850;28;20236;-79
2021/12/22 08:25:12;;;;;;;29.57;17.43;;;-2.60;99.90;;;;;;4993716;28;20181;-77
2021/12/22 08:27:39;;;;;;;26.50;16.67;;;-2.60;99.90;;;;;;4992655;28;20253;-77
2021/12/22 08:30:06;;;;;;;33.05;18.20;;;-2.60;99.90;;;;;;4993587;28;20194;-78
2021/12/22 08:32:33;;;;;;;27.15;16.05;;;-2.60;99.90;;;;;;4993962;28;20182;-77
2021/12/22 08:34:58;;;;;;;40.28;16.02;;;-2.60;99.90;;;;;;4993632;28;20279;-79
2021/12/22 08:40:10;;;;;;;30.95;17.40;;;-2.40;99.90;;;;;;4993396;28;20168;-77
2021/12/22 08:42:36;;;;;;;31.13;15.27;;;-2.40;99.90;;;;;;4993625;28;20183;-76
2021/12/22 08:45:04;;;;;;;24.20;16.30;;;-2.30;99.90;;;;;;4993627;28;20176;-77
2021/12/22 08:47:30;;;;;;;34.08;18.38;;;-2.30;99.90;;;;;;4976294;28;20491;-77
2021/12/22 08:49:55;;;;;;;23.47;16.63;;;-2.20;99.90;;;;;;4993488;28;20175;-78
2021/12/22 08:52:21;;;;;;;24.30;15.53;;;-2.10;99.90;;;;;;4993647;28;20240;-76
2021/12/22 08:54:47;;;;;;;30.33;15.90;;;-2.10;99.90;;;;;;4993485;28;20543;-77
2021/12/22 08:57:12;;;;;;;27.80;14.70;;;-1.90;99.90;;;;;;4993423;28;20459;-78
2021/12/22 08:59:38;;;;;;;27.53;16.50;;;-1.80;99.90;;;;;;4993152;28;20244;-78
2021/12/22 09:02:04;;;;;;;26.30;17.00;;;-1.80;99.90;;;;;;4994716;28;20535;-77
2021/12/22 09:04:31;;;;;;;27.67;18.15;;;-1.70;99.90;;;;;;4997524;28;20205;-80
2021/12/22 09:06:57;;;;;;;28.55;16.95;;;-1.60;99.90;;;;;;4997720;28;20258;-78
2021/12/22 09:09:23;;;;;;;24.67;16.00;;;-1.60;99.90;;;;;;4997175;28;20308;-77
2021/12/22 09:11:49;;;;;;;26.90;16.20;;;-1.50;99.90;;;;;;4997325;28;20813;-78
2021/12/22 09:14:16;;;;;;;26.20;16.88;;;-1.50;99.90;;;;;;4997500;28;20830;-79
2021/12/22 09:16:42;;;;;;;26.70;16.48;;;-1.40;99.90;;;;;;4997393;28;20175;-79
2021/12/22 09:19:08;;;;;;;24.42;15.93;;;-1.30;99.90;;;;;;4997222;28;20203;-78
2021/12/22 09:21:35;;;;;;;25.60;15.55;;;-1.30;99.90;;;;;;5011911;28;20624;-78
2021/12/22 09:24:01;;;;;;;28.52;16.45;;;-1.30;99.90;;;;;;4997002;28;20218;-79
2021/12/22 09:26:27;;;;;;;26.90;15.75;;;-1.20;99.90;;;;;;4997104;28;20265;-78
2021/12/22 09:28:54;;;;;;;26.23;16.75;;;-1.10;99.90;;;;;;4997048;28;20723;-78
2021/12/22 09:31:21;;;;;;;24.15;16.08;;;-1.10;99.90;;;;;;4996618;28;20682;-78
2021/12/22 09:33:47;;;;;;;24.45;15.90;;;-1.00;99.90;;;;;;4996778;28;20195;-78
2021/12/22 09:36:13;;;;;;;23.30;15.57;;;-1.00;99.90;;;;;;4996810;28;20198;-79
2021/12/22 09:38:39;;;;;;;24.40;16.67;;;-1.00;99.90;;;;;;4995661;28;20271;-77
2021/12/22 09:41:06;;;;;;;26.75;16.25;;;-0.80;99.90;;;;;;4996364;28;20601;-78
2021/12/22 09:43:32;;;;;;;27.52;17.23;;;-0.70;99.90;;;;;;4996519;28;20203;-79
2021/12/22 09:46:03;;;;;;;26.53;15.40;;;-0.80;99.90;;;;;;4996527;28;20233;-77
2021/12/22 09:52:16;;;;;;;28.42;18.80;;;-0.60;99.90;;;;;;4996304;28;20193;-75
2021/12/22 09:54:00;;;;;;;33.22;17.50;;;-0.40;99.90;;;;;;4996407;28;20192;-77
2021/12/22 09:56:30;;;;;;;28.08;18.00;;;-0.30;99.90;;;;;;4995312;28;20187;-77
2021/12/22 09:58:56;;;;;;;24.80;17.75;;;-0.20;99.90;;;;;;4996446;28;20172;-77
2021/12/22 10:01:25;;;;;;;28.55;18.35;;;-0.10;99.90;;;;;;4996293;28;20613;-78
2021/12/22 10:03:52;;;;;;;32.95;18.52;;;-0.10;99.90;;;;;;4996238;28;20215;-78
2021/12/22 10:06:18;;;;;;;26.55;16.40;;;0.00;99.90;;;;;;4996433;28;20203;-78
2021/12/22 10:08:52;;;;;;;23.80;15.93;;;0.10;99.90;;;;;;4996401;28;20636;-76
2021/12/22 10:11:18;;;;;;;25.45;16.40;;;0.20;99.90;;;;;;4995768;28;20198;-78
2021/12/22 10:13:44;;;;;;;22.47;14.60;;;0.30;99.90;;;;;;4995405;28;20262;-77
2021/12/22 10:16:16;;;;;;;23.20;13.75;;;0.40;99.90;;;;;;4996154;28;20218;-77
2021/12/22 10:18:42;;;;;;;22.58;14.00;;;0.20;99.90;;;;;;4996071;28;20188;-76
2021/12/22 10:21:26;;;;;;;23.73;14.80;;;0.30;99.90;;;;;;4995658;28;20211;-77
2021/12/22 10:23:53;;;;;;;19.80;13.93;;;0.30;99.90;;;;;;4996200;28;20213;-78
2021/12/22 10:26:22;;;;;;;23.83;13.23;;;0.30;99.90;;;;;;4996042;28;20229;-78
2021/12/22 10:28:51;;;;;;;18.02;11.88;;;0.50;99.90;;;;;;4996085;28;20580;-77
2021/12/22 10:31:18;;;;;;;21.52;11.57;;;0.70;99.90;;;;;;4995470;28;20202;-75
2021/12/22 10:33:45;;;;;;;14.23;9.30;;;0.80;99.90;;;;;;4995775;28;20182;-75
2021/12/22 10:36:20;;;;;;;17.50;11.07;;;0.90;99.90;;;;;;4995495;28;20227;-75
2021/12/22 10:38:54;;;;;;;16.58;11.43;;;0.90;99.90;;;;;;4995763;28;20212;-77
2021/12/22 10:41:22;;;;;;;14.88;9.48;;;1.10;99.90;;;;;;4995380;28;20209;-77
2021/12/22 10:43:50;;;;;;;15.52;9.85;;;1.40;99.90;;;;;;4995477;28;20211;-77
2021/12/22 10:46:26;;;;;;;15.98;10.02;;;1.50;99.90;;;;;;4994074;28;20176;-77
2021/12/22 10:49:14;;;;;;;13.30;10.32;;;1.60;99.90;;;;;;4995547;28;20171;-77
2021/12/22 10:52:07;;;;;;;15.48;10.73;;;1.70;99.90;;;;;;4995354;28;20199;-77
2021/12/22 10:54:38;;;;;;;13.95;10.73;;;1.40;99.90;;;;;;4993229;28;20195;-76
2021/12/22 10:57:08;;;;;;;14.90;10.38;;;1.40;99.90;;;;;;4995404;28;20203;-77
2021/12/22 10:59:49;;;;;;;20.25;11.63;;;1.30;99.90;;;;;;4995180;28;20602;-76
2021/12/22 11:02:25;;;;;;;21.23;11.98;;;1.50;99.90;;;;;;4995152;28;20635;-76
2021/12/22 11:04:51;;;;;;;17.67;12.77;;;1.50;99.90;;;;;;4995178;28;20189;-77
2021/12/22 11:07:25;;;;;;;20.17;11.75;;;1.70;99.90;;;;;;4995222;28;20527;-76
2021/12/22 11:09:52;;;;;;;20.45;12.02;;;1.60;99.90;;;;;;4993882;28;20230;-77
2021/12/22 11:12:33;;;;;;;17.67;11.55;;;1.50;99.90;;;;;;4995013;28;20230;-77
2021/12/22 11:14:58;;;;;;;20.27;11.60;;;1.80;99.90;;;;;;4994241;28;20551;-77
2021/12/22 11:17:24;;;;;;;14.90;10.60;;;2.00;99.90;;;;;;4995084;28;20180;-77
2021/12/22 11:20:02;;;;;;;15.43;10.43;;;2.00;99.90;;;;;;4977237;28;20528;-76
2021/12/22 11:22:40;;;;;;;12.07;9.75;;;1.90;99.90;;;;;;4994794;28;20202;-77
2021/12/22 11:25:11;;;;;;;16.63;10.70;;;2.10;99.90;;;;;;4995043;28;20549;-77
2021/12/22 11:27:37;;;;;;;14.95;9.55;;;2.20;99.90;;;;;;4993784;28;20292;-77
2021/12/22 11:30:03;;;;;;;19.70;10.30;;;2.10;99.90;;;;;;4994381;28;20663;-77
2021/12/22 11:32:31;;;;;;;12.45;10.10;;;2.20;99.90;;;;;;4994493;28;20200;-77
2021/12/22 11:35:00;;;;;;;15.32;9.70;;;2.20;99.90;;;;;;4994577;28;20528;-77
2021/12/22 11:37:27;;;;;;;15.23;10.35;;;2.40;99.90;;;;;;4994566;28;20226;-77
2021/12/22 11:39:54;;;;;;;15.50;9.75;;;2.30;99.90;;;;;;4994471;28;20252;-77
2021/12/22 11:42:24;;;;;;;17.90;9.30;;;2.60;99.90;;;;;;4994320;28;20242;-78
2021/12/22 11:44:54;;;;;;;11.68;9.30;;;2.70;99.90;;;;;;4994326;28;20211;-77
2021/12/22 11:47:21;;;;;;;13.65;9.82;;;3.20;99.90;;;;;;4994264;28;20632;-77
2021/12/22 11:50:01;;;;;;;15.07;10.43;;;2.90;99.90;;;;;;4994138;28;20227;-78
2021/12/22 11:52:34;;;;;;;11.65;10.30;;;2.90;99.90;;;;;;4994289;28;20284;-75
2021/12/22 11:55:28;;;;;;;16.13;10.68;;;3.00;99.90;;;;;;4994046;28;20182;-78
2021/12/22 11:58:17;;;;;;;14.68;10.77;;;3.10;99.90;;;;;;4994206;28;20192;-77
2021/12/22 12:00:50;;;;;;;15.35;10.43;;;3.10;99.90;;;;;;4993623;28;20199;-77
2021/12/22 12:03:37;;;;;;;18.40;10.50;;;3.20;99.90;;;;;;4994298;28;20572;-79
2021/12/22 12:06:16;;;;;;;15.50;10.43;;;3.50;99.90;;;;;;4994294;28;20189;-78
2021/12/22 12:08:48;;;;;;;17.73;12.40;;;3.20;99.90;;;;;;4994269;28;20206;-78
2021/12/22 12:11:17;;;;;;;16.13;10.77;;;3.30;99.90;;;;;;5008868;28;20249;-78
2021/12/22 12:14:02;;;;;;;19.08;12.38;;;3.60;99.90;;;;;;4992804;28;20180;-78
2021/12/22 12:22:08;;;;;;;14.90;9.43;;;4.30;99.90;;;;;;4994063;28;20282;-79
2021/12/22 12:24:47;;;;;;;14.52;10.15;;;4.30;99.90;;;;;;4993944;28;20227;-79
2021/12/22 12:27:43;;;;;;;15.43;10.05;;;4.60;99.90;;;;;;4993978;28;20508;-78
2021/12/22 12:30:13;;;;;;;16.35;10.30;;;4.70;99.90;;;;;;4993474;28;20167;-78
2021/12/22 12:32:39;;;;;;;16.23;10.52;;;4.70;99.90;;;;;;4993858;28;20171;-78
2021/12/22 12:35:23;;;;;;;13.77;10.27;;;4.90;99.90;;;;;;4993689;28;20277;-79
2021/12/22 12:38:07;;;;;;;9.95;8.85;;;4.70;99.90;;;;;;4993626;28;20179;-78
2021/12/22 12:40:54;;;;;;;13.55;9.10;;;4.90;99.90;;;;;;4993376;28;20194;-78
2021/12/22 12:43:40;;;;;;;14.23;9.52;;;4.90;99.90;;;;;;4993899;28;20207;-78
2021/12/22 12:46:25;;;;;;;14.25;8.93;;;4.90;99.90;;;;;;4983285;28;20190;-78
2021/12/22 12:49:07;;;;;;;11.60;9.30;;;5.00;99.90;;;;;;4993640;28;20174;-79
2021/12/22 12:51:42;;;;;;;13.13;8.95;;;5.10;99.90;;;;;;4993350;28;20249;-79
2021/12/22 12:54:25;;;;;;;13.95;8.57;;;5.10;99.90;;;;;;4993730;28;20206;-79
2021/12/22 12:56:55;;;;;;;18.88;9.95;;;5.00;99.90;;;;;;4993744;28;20203;-78
2021/12/22 12:59:45;;;;;;;12.70;9.15;;;4.90;99.90;;;;;;4993143;28;20175;-78
2021/12/22 13:02:18;;;;;;;12.93;8.35;;;4.90;99.90;;;;;;4993597;28;20203;-78
2021/12/22 13:04:44;;;;;;;13.15;9.60;;;5.00;99.90;;;;;;4993688;28;20199;-79
2021/12/22 13:07:16;;;;;;;14.70;8.77;;;4.80;99.90;;;;;;4993465;28;20184;-79
2021/12/22 13:09:43;;;;;;;14.13;9.32;;;4.90;99.90;;;;;;4993109;28;20589;-79
2021/12/22 13:17:22;;;;;;;10.43;7.82;;;5.20;99.90;;;;;;4993693;28;20601;-78